createdAt,value
2019-05-20T07:10:08.317Z,22.64
2019-05-20T07:12:41.560Z,22.76
2019-05-20T07:15:13.204Z,23.03
2019-05-20T07:17:44.531Z,23.20
2019-05-20T07:20:16.245Z,23.36
2019-05-20T07:22:55.679Z,23.45
2019-05-20T07:25:21.153Z,23.55
2019-05-20T07:27:52.617Z,23.69
2019-05-20T07:30:24.111Z,23.89
2019-05-20T07:32:55.590Z,23.99
2019-05-20T07:35:30.703Z,24.07
2019-05-20T07:38:01.425Z,24.22
2019-05-20T07:40:33.425Z,24.20
2019-05-20T07:43:05.277Z,24.14
2019-05-20T07:45:38.492Z,24.24
2019-05-20T07:48:12.972Z,24.38
2019-05-20T07:50:45.037Z,24.45
2019-05-20T07:53:17.438Z,24.46
2019-05-20T07:56:03.911Z,24.41
2019-05-20T07:58:37.499Z,24.61
2019-05-20T08:01:08.896Z,24.81
2019-05-20T08:03:40.470Z,24.80
2019-05-20T08:06:13.112Z,24.89
2019-05-20T08:08:44.595Z,24.96
2019-05-20T08:11:16.038Z,24.90
2019-05-20T08:13:47.775Z,24.93
2019-05-20T08:16:19.347Z,25.03
2019-05-20T08:18:50.917Z,25.25
2019-05-20T08:21:22.378Z,25.45
2019-05-20T08:23:53.855Z,25.36
2019-05-20T08:26:25.522Z,25.25
2019-05-20T08:28:57.073Z,25.10
2019-05-20T08:31:28.489Z,25.07
2019-05-20T08:33:59.917Z,25.10
2019-05-20T08:36:31.382Z,25.35
2019-05-20T08:39:02.946Z,25.60
2019-05-20T08:41:35.782Z,25.54
2019-05-20T08:44:07.233Z,25.57
2019-05-20T08:46:38.712Z,25.32
2019-05-20T08:49:11.412Z,25.46
2019-05-20T08:51:43.747Z,25.58
2019-05-20T08:54:15.258Z,25.80
2019-05-20T08:56:49.271Z,25.64
2019-05-20T08:59:20.066Z,25.55
2019-05-20T09:01:51.382Z,25.53
2019-05-20T09:04:22.808Z,25.62
2019-05-20T09:06:54.243Z,25.82
2019-05-20T09:09:27.104Z,26.02
2019-05-20T09:11:58.977Z,26.04
2019-05-20T09:14:30.514Z,26.03
2019-05-20T09:17:01.913Z,26.03
2019-05-20T09:19:33.519Z,25.80
2019-05-20T09:22:04.890Z,25.84
2019-05-20T09:24:36.425Z,25.75
2019-05-20T09:27:08.304Z,25.67
2019-05-20T09:29:39.918Z,25.65
2019-05-20T09:32:13.146Z,25.82
2019-05-20T09:34:44.896Z,25.87
2019-05-20T09:37:16.343Z,26.07
2019-05-20T09:39:47.830Z,26.03
2019-05-20T09:42:19.337Z,25.93
2019-05-20T09:44:52.475Z,26.01
2019-05-20T09:47:24.054Z,25.98
2019-05-20T09:49:55.636Z,26.06
2019-05-20T09:52:27.080Z,26.25
2019-05-20T09:54:58.555Z,26.09
2019-05-20T09:57:30.076Z,26.17
2019-05-20T10:00:01.698Z,26.34
2019-05-20T10:02:37.987Z,26.50
2019-05-20T10:05:07.988Z,26.26
2019-05-20T10:07:39.454Z,26.29
2019-05-20T10:10:11.130Z,26.28
2019-05-20T10:12:46.512Z,26.33
2019-05-20T10:15:17.601Z,26.49
2019-05-20T10:17:48.958Z,26.53
2019-05-20T10:20:21.345Z,26.78
2019-05-20T10:22:52.834Z,26.63
2019-05-20T10:25:24.268Z,26.45
2019-05-20T10:27:57.691Z,26.67
2019-05-20T10:30:28.903Z,26.90
2019-05-20T10:33:00.527Z,26.75
2019-05-20T10:35:31.968Z,26.55
2019-05-20T10:38:03.425Z,26.67
2019-05-20T10:40:34.986Z,26.89
2019-05-20T10:44:42.681Z,26.89
2019-05-20T10:47:14.339Z,26.99
2019-05-20T10:49:45.771Z,26.92
2019-05-20T10:52:17.252Z,26.89
2019-05-20T10:54:48.792Z,27.10
2019-05-20T10:57:21.314Z,27.24
2019-05-20T10:59:52.704Z,27.05
2019-05-20T11:02:24.262Z,27.02
2019-05-20T11:04:55.659Z,26.94
2019-05-20T11:07:27.396Z,26.90
2019-05-20T11:09:58.879Z,27.06
2019-05-20T11:12:30.293Z,27.14
2019-05-20T11:15:02.405Z,27.14
2019-05-20T11:17:37.706Z,27.30
2019-05-20T11:20:09.744Z,27.43
2019-05-20T11:22:41.766Z,27.43
2019-05-20T11:25:13.147Z,27.57
2019-05-20T11:27:44.458Z,27.35
2019-05-20T11:30:17.968Z,27.35
2019-05-20T11:32:49.296Z,27.09
2019-05-20T11:35:20.661Z,27.21
2019-05-20T11:37:59.516Z,27.54
2019-05-20T11:40:30.952Z,27.20
2019-05-20T11:43:02.544Z,27.20
2019-05-20T11:45:33.850Z,27.21
2019-05-20T11:48:05.442Z,27.47
2019-05-20T11:50:36.971Z,27.75
2019-05-20T11:53:08.614Z,27.49
2019-05-20T11:55:40.493Z,27.49
2019-05-20T11:58:16.231Z,27.14
2019-05-20T12:00:45.269Z,27.34
2019-05-20T12:03:16.640Z,27.50
2019-05-20T12:05:48.288Z,27.50
2019-05-20T12:08:20.018Z,27.33
2019-05-20T12:10:51.536Z,27.25
2019-05-20T12:13:23.169Z,27.50
2019-05-20T12:15:54.627Z,27.56
2019-05-20T12:18:27.194Z,27.56
2019-05-20T12:20:58.546Z,27.70
2019-05-20T12:23:29.998Z,27.56
2019-05-20T12:26:01.570Z,27.41
2019-05-20T12:28:34.217Z,27.17
2019-05-20T12:31:05.695Z,27.43
2019-05-20T12:33:37.232Z,27.43
2019-05-20T12:36:08.860Z,27.33
2019-05-20T12:38:40.214Z,27.23
2019-05-20T12:41:11.523Z,27.30
2019-05-20T12:43:45.649Z,27.31
2019-05-20T12:46:17.281Z,27.47
2019-05-20T12:48:48.832Z,27.37
2019-05-20T12:51:20.285Z,27.58
2019-05-20T12:53:51.718Z,27.39
2019-05-20T12:56:23.413Z,27.41
2019-05-20T12:58:54.906Z,27.67
2019-05-20T13:01:26.360Z,27.67
2019-05-20T13:03:57.976Z,27.76
2019-05-20T13:06:29.893Z,27.92
2019-05-20T13:09:01.854Z,27.85
2019-05-20T13:11:34.519Z,27.81
2019-05-20T13:14:06.250Z,27.91
2019-05-20T13:16:37.642Z,27.88
2019-05-20T13:19:09.196Z,27.86
2019-05-20T13:21:40.872Z,27.55
2019-05-20T13:24:12.312Z,27.44
2019-05-20T13:26:43.842Z,27.72
2019-05-20T13:29:15.286Z,27.74
2019-05-20T13:31:47.621Z,27.37
2019-05-20T13:34:20.165Z,27.50
2019-05-20T13:36:51.751Z,27.85
2019-05-20T13:39:23.423Z,27.79
2019-05-20T13:41:54.763Z,27.64
2019-05-20T13:44:27.421Z,27.69
2019-05-20T13:47:01.048Z,27.26
2019-05-20T13:49:32.709Z,27.39
2019-05-20T13:52:04.165Z,27.37
2019-05-20T13:54:36.548Z,27.31
2019-05-20T13:57:12.326Z,27.22
2019-05-20T13:59:41.040Z,27.22
2019-05-20T14:02:12.418Z,27.24
2019-05-20T14:04:43.885Z,27.22
2019-05-20T14:07:15.404Z,27.13
2019-05-20T14:09:46.850Z,27.15
2019-05-20T14:12:18.449Z,27.02
2019-05-20T14:14:49.902Z,27.07
2019-05-20T14:17:21.363Z,27.09
2019-05-20T14:19:53.883Z,26.97
2019-05-20T14:22:25.451Z,27.05
2019-05-20T14:24:56.822Z,27.12
2019-05-20T14:27:28.292Z,27.15
2019-05-20T14:30:00.763Z,27.10
2019-05-20T14:32:32.405Z,27.25
2019-05-20T14:35:05.885Z,27.25
2019-05-20T14:37:38.375Z,27.22
2019-05-20T14:40:11.673Z,27.22
2019-05-20T14:42:43.270Z,27.11
2019-05-20T14:45:14.754Z,27.30
2019-05-20T14:47:46.067Z,27.39
2019-05-20T14:50:18.507Z,27.37
2019-05-20T14:52:52.969Z,27.37
2019-05-20T14:55:24.611Z,27.55
2019-05-20T14:57:55.948Z,27.78
2019-05-20T15:00:27.680Z,28.38
2019-05-20T15:02:59.130Z,28.60
2019-05-20T15:05:30.676Z,28.80
2019-05-20T15:08:02.216Z,28.80
2019-05-20T15:10:33.719Z,28.95
2019-05-20T15:13:05.762Z,28.87
2019-05-20T15:15:37.764Z,29.01
2019-05-20T15:18:09.228Z,29.32
2019-05-20T15:20:42.204Z,29.15
2019-05-20T15:23:13.756Z,29.21
2019-05-20T15:25:46.577Z,29.05
2019-05-20T15:28:18.142Z,29.00
2019-05-20T15:30:50.745Z,28.95
2019-05-20T15:33:22.304Z,28.69
2019-05-20T15:35:53.765Z,27.97
2019-05-20T15:38:25.478Z,27.32
2019-05-20T15:40:57.006Z,27.20
2019-05-20T15:43:28.646Z,26.84
2019-05-20T15:46:00.414Z,26.49
2019-05-20T15:48:31.957Z,26.38
2019-05-20T15:51:05.141Z,26.26
2019-05-20T15:53:36.985Z,26.11
2019-05-20T15:56:08.936Z,26.01
2019-05-20T15:58:40.497Z,25.89
2019-05-20T16:01:12.077Z,25.79
2019-05-20T16:03:43.507Z,25.81
2019-05-20T16:06:14.804Z,25.75
2019-05-20T16:08:46.408Z,25.64
2019-05-20T16:11:17.873Z,25.60
2019-05-20T16:13:49.516Z,25.57
2019-05-20T16:16:22.681Z,25.54
2019-05-20T16:18:55.112Z,25.44
2019-05-20T16:21:27.666Z,25.41
2019-05-20T16:24:05.981Z,25.37
2019-05-20T16:26:41.381Z,25.31
2019-05-20T16:29:21.642Z,25.23
2019-05-20T16:31:58.868Z,25.21
2019-05-20T16:34:30.363Z,25.18
2019-05-20T16:37:02.801Z,25.17
2019-05-20T16:39:34.339Z,25.16
2019-05-20T16:42:06.007Z,25.08
2019-05-20T16:44:41.186Z,25.02
2019-05-20T16:47:15.858Z,24.97
2019-05-20T16:49:54.071Z,24.94
2019-05-20T16:52:25.521Z,24.89
2019-05-20T16:54:57.101Z,24.83
2019-05-20T16:57:28.712Z,24.83
2019-05-20T17:00:00.154Z,24.79
2019-05-20T17:02:31.649Z,24.68
2019-05-20T17:05:03.265Z,24.58
2019-05-20T17:07:34.861Z,24.53
2019-05-20T17:10:08.573Z,24.50
2019-05-20T17:12:40.718Z,24.43
2019-05-20T17:15:13.948Z,24.35
2019-05-20T17:17:45.477Z,24.26
2019-05-20T17:20:17.031Z,24.27
2019-05-20T17:22:48.702Z,24.23
2019-05-20T17:25:20.248Z,24.14
2019-05-20T17:27:51.656Z,24.10
2019-05-20T17:30:26.923Z,24.05
2019-05-20T17:32:58.396Z,23.90
2019-05-20T17:35:29.781Z,23.93
2019-05-20T17:38:01.219Z,23.90
2019-05-20T17:40:32.674Z,23.78
2019-05-20T17:43:04.539Z,23.74
2019-05-20T17:45:36.125Z,23.64
2019-05-20T17:48:07.786Z,23.64
2019-05-20T17:50:40.569Z,23.60
2019-05-20T17:53:12.016Z,23.55
2019-05-20T17:55:43.575Z,23.46
2019-05-20T17:58:15.038Z,23.40
2019-05-20T18:00:48.547Z,23.38
2019-05-20T18:03:20.302Z,23.31
2019-05-20T18:05:51.781Z,23.28
2019-05-20T18:08:24.991Z,23.24
2019-05-20T18:10:56.719Z,23.15
2019-05-20T18:13:28.678Z,23.12
2019-05-20T18:16:00.210Z,23.05
2019-05-20T18:18:31.639Z,23.03
2019-05-20T18:21:03.137Z,22.99
2019-05-20T18:23:35.422Z,22.91
2019-05-20T18:26:06.856Z,22.84
2019-05-20T18:28:38.328Z,22.81
2019-05-20T18:31:09.700Z,22.74
2019-05-20T18:33:41.413Z,22.70
2019-05-20T18:36:12.872Z,22.71
2019-05-20T18:38:44.281Z,22.63
2019-05-20T18:41:15.786Z,22.58
2019-05-20T18:43:47.183Z,22.53
2019-05-20T18:46:18.734Z,22.55
2019-05-20T18:48:50.145Z,22.50
2019-05-20T18:51:21.618Z,22.50
2019-05-20T18:53:54.558Z,22.45
2019-05-20T18:56:25.910Z,22.38
2019-05-20T18:58:57.362Z,22.35
2019-05-20T19:01:29.031Z,22.32
2019-05-20T19:04:00.497Z,22.28
2019-05-20T19:06:31.970Z,22.26
2019-05-20T19:09:04.313Z,22.26
2019-05-20T19:11:35.772Z,22.24
2019-05-20T19:14:08.455Z,22.20
2019-05-20T19:16:40.311Z,22.17
2019-05-20T19:19:15.009Z,22.23
2019-05-20T19:21:49.452Z,22.18
2019-05-20T19:24:21.078Z,22.14
2019-05-20T19:26:52.822Z,22.13
2019-05-20T19:29:24.257Z,22.10
2019-05-20T19:32:01.674Z,22.03
2019-05-20T19:34:29.343Z,22.03
2019-05-20T19:37:00.790Z,22.03
2019-05-20T19:39:32.663Z,21.99
2019-05-20T19:42:05.315Z,21.91
2019-05-20T19:44:36.823Z,21.81
2019-05-20T19:47:10.126Z,21.79
2019-05-20T19:49:42.598Z,21.68
2019-05-20T19:52:14.404Z,21.57
2019-05-20T19:54:45.934Z,21.61
2019-05-20T19:57:17.701Z,21.62
2019-05-20T19:59:49.104Z,21.56
2019-05-20T20:02:20.871Z,21.52
2019-05-20T20:04:52.689Z,21.44
2019-05-20T20:07:24.154Z,21.38
2019-05-20T20:09:55.527Z,21.37
2019-05-20T20:12:26.983Z,21.37
2019-05-20T20:14:58.478Z,21.24
2019-05-20T20:17:29.983Z,21.19
2019-05-20T20:20:01.483Z,21.15
2019-05-20T20:22:33.159Z,21.13
2019-05-20T20:25:06.013Z,21.18
2019-05-20T20:27:38.128Z,21.08
2019-05-20T20:30:09.878Z,21.00
2019-05-20T20:32:42.351Z,20.98
2019-05-20T20:35:14.095Z,20.91
2019-05-20T20:37:46.575Z,20.93
2019-05-20T20:40:19.717Z,20.92
2019-05-20T20:42:51.275Z,20.87
2019-05-20T20:45:22.882Z,20.88
2019-05-20T20:47:54.404Z,20.74
2019-05-20T20:50:25.911Z,20.71
2019-05-20T20:52:59.312Z,20.73
2019-05-20T20:55:30.780Z,20.75
2019-05-20T20:58:02.180Z,20.72
2019-05-20T21:00:34.080Z,20.71
2019-05-20T21:03:05.469Z,20.69
2019-05-20T21:05:36.899Z,20.73
2019-05-20T21:08:08.328Z,20.70
2019-05-20T21:10:39.987Z,20.70
2019-05-20T21:13:11.369Z,20.67
2019-05-20T21:15:42.779Z,20.68
2019-05-20T21:18:14.178Z,20.69
2019-05-20T21:20:45.577Z,20.59
2019-05-20T21:23:18.601Z,20.55
2019-05-20T21:25:50.126Z,20.53
2019-05-20T21:28:21.694Z,20.44
2019-05-20T21:30:53.435Z,20.47
2019-05-20T21:33:25.065Z,20.39
2019-05-20T21:35:56.576Z,20.42
2019-05-20T21:38:27.902Z,20.43
2019-05-20T21:40:59.481Z,20.41
2019-05-20T21:43:31.047Z,20.41
2019-05-20T21:46:03.226Z,20.38
2019-05-20T21:48:34.664Z,20.31
2019-05-20T21:51:06.076Z,20.27
2019-05-20T21:53:37.486Z,20.26
2019-05-20T21:56:09.082Z,20.22
2019-05-20T21:58:40.514Z,20.18
2019-05-20T22:01:12.116Z,20.14
2019-05-20T22:03:43.622Z,20.14
2019-05-20T22:06:16.986Z,20.15
2019-05-20T22:08:48.724Z,20.15
2019-05-20T22:11:20.217Z,20.13
2019-05-20T22:13:53.311Z,20.15
2019-05-20T22:16:29.458Z,20.08
2019-05-20T22:18:58.603Z,20.05
2019-05-20T22:21:34.624Z,20.07
2019-05-20T22:24:08.150Z,20.00
2019-05-20T22:26:39.770Z,20.01
2019-05-20T22:29:11.319Z,19.97
2019-05-20T22:31:42.854Z,19.91
2019-05-20T22:34:14.212Z,19.94
2019-05-20T22:36:45.709Z,19.87
2019-05-20T22:39:17.154Z,19.88
2019-05-20T22:41:48.573Z,19.90
2019-05-20T22:44:19.949Z,19.87
2019-05-20T22:46:51.584Z,19.81
2019-05-20T22:49:23.006Z,19.68
2019-05-20T22:51:54.489Z,19.73
2019-05-20T22:54:25.797Z,19.70
2019-05-20T22:56:57.459Z,19.66
2019-05-20T22:59:28.787Z,19.70
2019-05-20T23:02:00.130Z,19.67
2019-05-20T23:04:31.608Z,19.55
2019-05-20T23:07:03.095Z,19.51
2019-05-20T23:09:34.534Z,19.53
2019-05-20T23:12:05.892Z,19.48
2019-05-20T23:14:37.347Z,19.40
2019-05-20T23:17:08.822Z,19.35
2019-05-20T23:19:40.146Z,19.28
2019-05-20T23:22:11.854Z,19.26
2019-05-20T23:24:43.316Z,19.26
2019-05-20T23:27:15.004Z,19.29
2019-05-20T23:29:47.115Z,19.27
2019-05-20T23:32:18.492Z,19.12
2019-05-20T23:34:50.094Z,19.11
2019-05-20T23:37:21.897Z,19.11
2019-05-20T23:39:53.508Z,19.10
2019-05-20T23:42:25.171Z,19.03
2019-05-20T23:44:56.587Z,19.05
2019-05-20T23:47:28.165Z,19.03
2019-05-20T23:49:59.624Z,18.96
2019-05-20T23:52:32.202Z,18.92
2019-05-20T23:55:09.800Z,18.89
2019-05-20T23:57:41.351Z,18.83
